Time;durP1;ratioP1;P1;durP2;ratioP2;P2;SDS_P1;SDS_P2;PMS_P1;PMS_P2;Temp;Humidity;BMP_temperature;BMP_pressure;BME280_temperature;BME280_humidity;BME280_pressure;Samples;Min_cycle;Max_cycle;Signal;HPM_P1;HPM_P2
2023/07/18 00:01:15;;;;;;;0.93;0.45;;;;;;;;;;5033259;28;20036;-83
2023/07/18 00:03:41;;;;;;;0.85;0.13;;;;;;;;;;5033288;28;20079;-83
2023/07/18 00:06:08;;;;;;;0.10;0.10;;;;;;;;;;5033600;28;20120;-83
2023/07/18 00:08:34;;;;;;;0.17;0.13;;;;;;;;;;5034020;28;20096;-83
2023/07/18 00:11:00;;;;;;;0.22;0.22;;;;;;;;;;5033657;28;20029;-82
2023/07/18 00:13:26;;;;;;;0.10;0.10;;;;;;;;;;5033625;28;20029;-83
2023/07/18 00:15:52;;;;;;;0.80;0.70;;;;;;;;;;5032838;28;20514;-83
2023/07/18 00:18:21;;;;;;;1.02;0.47;;;;;;;;;;5033489;28;20032;-83
2023/07/18 00:20:47;;;;;;;0.00;0.00;;;;;;;;;;5033486;28;20069;-83
2023/07/18 00:23:13;;;;;;;0.20;0.20;;;;;;;;;;5033149;28;20521;-83
2023/07/18 00:25:39;;;;;;;0.65;0.38;;;;;;;;;;5033473;28;20035;-83
2023/07/18 00:28:05;;;;;;;0.10;0.10;;;;;;;;;;5034244;28;20025;-83
2023/07/18 00:30:32;;;;;;;0.13;0.10;;;;;;;;;;5032906;28;20044;-83
2023/07/18 00:32:57;;;;;;;0.13;0.13;;;;;;;;;;5033145;28;20029;-83
2023/07/18 00:35:24;;;;;;;0.43;0.43;;;;;;;;;;5033022;28;20030;-83
2023/07/18 00:37:50;;;;;;;0.10;0.10;;;;;;;;;;5033661;28;20022;-83
2023/07/18 00:40:16;;;;;;;0.40;0.25;;;;;;;;;;5033275;28;20080;-82
2023/07/18 00:42:47;;;;;;;0.15;0.15;;;;;;;;;;5033022;28;20021;-82
2023/07/18 00:45:13;;;;;;;0.10;0.10;;;;;;;;;;5032979;28;20029;-83
2023/07/18 00:47:41;;;;;;;0.10;0.10;;;;;;;;;;5032933;28;20067;-83
2023/07/18 00:50:08;;;;;;;0.08;0.08;;;;;;;;;;5032338;28;20383;-83
2023/07/18 00:52:40;;;;;;;0.28;0.28;;;;;;;;;;5032572;28;20045;-83
2023/07/18 00:55:07;;;;;;;0.20;0.20;;;;;;;;;;5033109;28;20025;-83
2023/07/18 00:57:34;;;;;;;0.10;0.10;;;;;;;;;;5032574;28;20017;-82
2023/07/18 01:00:00;;;;;;;0.28;0.28;;;;;;;;;;5032716;28;20045;-83
2023/07/18 01:02:26;;;;;;;0.00;0.00;;;;;;;;;;5032649;28;20029;-83
2023/07/18 01:04:52;;;;;;;0.20;0.20;;;;;;;;;;5032903;28;20030;-82
2023/07/18 01:07:20;;;;;;;0.20;0.20;;;;;;;;;;5032448;28;20026;-82
2023/07/18 01:09:47;;;;;;;0.20;0.20;;;;;;;;;;5032429;28;20033;-82
2023/07/18 01:12:13;;;;;;;0.30;0.30;;;;;;;;;;5032061;28;20029;-82
2023/07/18 01:14:40;;;;;;;0.10;0.10;;;;;;;;;;5031711;28;20068;-83
2023/07/18 01:17:08;;;;;;;0.32;0.32;;;;;;;;;;5032359;28;20099;-83
2023/07/18 01:19:35;;;;;;;0.10;0.10;;;;;;;;;;5032499;28;20128;-82
2023/07/18 01:22:01;;;;;;;0.55;0.55;;;;;;;;;;5032182;28;20022;-82
2023/07/18 01:24:27;;;;;;;0.20;0.20;;;;;;;;;;5032119;28;20513;-82
2023/07/18 01:26:54;;;;;;;0.40;0.40;;;;;;;;;;5032405;28;20028;-82
2023/07/18 01:29:20;;;;;;;0.55;0.55;;;;;;;;;;5032475;28;20187;-83
2023/07/18 01:31:48;;;;;;;0.15;0.10;;;;;;;;;;5032030;28;20080;-83
2023/07/18 01:34:14;;;;;;;0.35;0.22;;;;;;;;;;5032202;28;20026;-83
2023/07/18 01:36:41;;;;;;;0.10;0.10;;;;;;;;;;5032008;28;20036;-82
2023/07/18 01:39:08;;;;;;;2.20;0.28;;;;;;;;;;5031927;28;20024;-82
2023/07/18 01:41:34;;;;;;;0.10;0.10;;;;;;;;;;5031969;28;20108;-83
2023/07/18 01:44:00;;;;;;;0.13;0.13;;;;;;;;;;5032163;28;20021;-83
2023/07/18 01:46:26;;;;;;;0.13;0.13;;;;;;;;;;5032639;28;20500;-83
2023/07/18 01:48:52;;;;;;;0.00;0.00;;;;;;;;;;5031855;28;20025;-82
2023/07/18 01:51:18;;;;;;;0.00;0.00;;;;;;;;;;5031968;28;20452;-83
2023/07/18 01:53:44;;;;;;;0.55;0.28;;;;;;;;;;5032096;28;20018;-82
2023/07/18 01:56:10;;;;;;;0.50;0.50;;;;;;;;;;5031625;28;20037;-83
2023/07/18 01:58:36;;;;;;;0.20;0.20;;;;;;;;;;5031992;28;20151;-82
2023/07/18 02:01:03;;;;;;;0.00;0.00;;;;;;;;;;5031838;28;20116;-82
2023/07/18 02:03:29;;;;;;;0.05;0.05;;;;;;;;;;5031752;28;20044;-83
2023/07/18 02:05:55;;;;;;;0.50;0.50;;;;;;;;;;5031898;28;20474;-82
2023/07/18 02:08:21;;;;;;;0.10;0.10;;;;;;;;;;5031711;28;20051;-83
2023/07/18 02:10:47;;;;;;;0.30;0.30;;;;;;;;;;5031864;28;20548;-83
2023/07/18 02:13:13;;;;;;;0.30;0.30;;;;;;;;;;5031835;28;20033;-82
2023/07/18 02:15:39;;;;;;;0.20;0.20;;;;;;;;;;5031355;28;20125;-83
2023/07/18 02:18:05;;;;;;;0.20;0.20;;;;;;;;;;5031646;28;20084;-82
2023/07/18 02:20:31;;;;;;;0.00;0.00;;;;;;;;;;5031442;28;20033;-82
2023/07/18 02:23:00;;;;;;;0.40;0.25;;;;;;;;;;5031607;28;20031;-83
2023/07/18 02:25:26;;;;;;;0.10;0.10;;;;;;;;;;5032708;28;20026;-83
2023/07/18 02:27:52;;;;;;;0.10;0.10;;;;;;;;;;5035457;28;20049;-83
2023/07/18 02:30:18;;;;;;;0.10;0.10;;;;;;;;;;5035876;28;20026;-83
2023/07/18 02:32:45;;;;;;;0.13;0.13;;;;;;;;;;5035335;28;20111;-83
2023/07/18 02:35:12;;;;;;;0.40;0.40;;;;;;;;;;5035254;28;20041;-82
2023/07/18 02:37:38;;;;;;;0.20;0.20;;;;;;;;;;5035187;28;20021;-83
2023/07/18 02:40:11;;;;;;;0.20;0.20;;;;;;;;;;5034753;28;20040;-82
2023/07/18 02:42:37;;;;;;;0.30;0.30;;;;;;;;;;5035117;28;20440;-82
2023/07/18 02:45:04;;;;;;;0.10;0.10;;;;;;;;;;5035333;28;20025;-82
2023/07/18 02:47:30;;;;;;;0.10;0.10;;;;;;;;;;5035393;28;20021;-83
2023/07/18 02:49:56;;;;;;;0.10;0.10;;;;;;;;;;5033399;28;20033;-82
2023/07/18 02:52:22;;;;;;;0.10;0.10;;;;;;;;;;5034959;28;20032;-83
2023/07/18 02:54:50;;;;;;;0.10;0.10;;;;;;;;;;5034791;28;20199;-83
2023/07/18 02:57:16;;;;;;;0.20;0.20;;;;;;;;;;5034973;28;20025;-82
2023/07/18 02:59:42;;;;;;;0.17;0.17;;;;;;;;;;5034812;28;20041;-83
2023/07/18 03:02:08;;;;;;;0.10;0.10;;;;;;;;;;5035015;28;20026;-82
2023/07/18 03:04:35;;;;;;;0.10;0.10;;;;;;;;;;5034716;28;20033;-82
2023/07/18 03:07:02;;;;;;;0.10;0.10;;;;;;;;;;5034776;28;20053;-82
2023/07/18 03:09:32;;;;;;;0.05;0.05;;;;;;;;;;5034340;28;20025;-82
2023/07/18 03:11:58;;;;;;;1.10;0.25;;;;;;;;;;5034654;28;20040;-83
2023/07/18 03:14:24;;;;;;;0.20;0.20;;;;;;;;;;5034676;28;20386;-83
2023/07/18 03:16:50;;;;;;;0.10;0.10;;;;;;;;;;5034781;28;20049;-83
2023/07/18 03:19:16;;;;;;;0.52;0.52;;;;;;;;;;5034447;28;20079;-82
2023/07/18 03:21:43;;;;;;;0.35;0.35;;;;;;;;;;5034331;28;20443;-83
2023/07/18 03:24:10;;;;;;;0.30;0.30;;;;;;;;;;5034064;28;20161;-82
2023/07/18 03:26:39;;;;;;;0.20;0.20;;;;;;;;;;5034347;28;20030;-83
2023/07/18 03:29:06;;;;;;;0.22;0.22;;;;;;;;;;5034520;28;20083;-84
2023/07/18 03:31:33;;;;;;;0.10;0.10;;;;;;;;;;5034484;28;20560;-84
2023/07/18 03:33:59;;;;;;;0.10;0.10;;;;;;;;;;5034170;28;20478;-83
2023/07/18 03:36:26;;;;;;;0.10;0.10;;;;;;;;;;5033530;28;20421;-85
2023/07/18 03:38:52;;;;;;;0.00;0.00;;;;;;;;;;5033541;28;20033;-84
2023/07/18 03:41:18;;;;;;;0.22;0.22;;;;;;;;;;5034087;28;20064;-85
2023/07/18 03:43:44;;;;;;;0.03;0.03;;;;;;;;;;5034349;28;20435;-84
2023/07/18 03:46:10;;;;;;;0.10;0.10;;;;;;;;;;5034372;28;20022;-84
2023/07/18 03:48:37;;;;;;;0.10;0.10;;;;;;;;;;5033917;28;20037;-85
2023/07/18 03:51:04;;;;;;;0.00;0.00;;;;;;;;;;5034025;28;20029;-83
2023/07/18 03:53:30;;;;;;;2.05;0.45;;;;;;;;;;5034022;28;20120;-83
2023/07/18 03:56:02;;;;;;;0.20;0.20;;;;;;;;;;5033868;28;20041;-82
2023/07/18 03:58:28;;;;;;;0.10;0.10;;;;;;;;;;5034100;28;20022;-82
2023/07/18 04:00:54;;;;;;;0.10;0.10;;;;;;;;;;5033723;28;20064;-83
2023/07/18 04:03:19;;;;;;;0.30;0.30;;;;;;;;;;5033705;28;20087;-82
2023/07/18 04:05:46;;;;;;;0.32;0.20;;;;;;;;;;5033806;28;20501;-83
2023/07/18 04:08:12;;;;;;;0.38;0.20;;;;;;;;;;5031916;28;20394;-82
2023/07/18 04:10:38;;;;;;;0.15;0.15;;;;;;;;;;5033909;28;20025;-83
2023/07/18 04:13:04;;;;;;;0.20;0.20;;;;;;;;;;5033241;28;20025;-82
2023/07/18 04:15:31;;;;;;;0.20;0.20;;;;;;;;;;5033345;28;20103;-82
2023/07/18 04:17:57;;;;;;;0.52;0.45;;;;;;;;;;5033525;28;20454;-83
2023/07/18 04:20:23;;;;;;;0.17;0.17;;;;;;;;;;5033022;28;20041;-83
2023/07/18 04:22:49;;;;;;;0.25;0.25;;;;;;;;;;5033158;28;20013;-83
2023/07/18 04:25:15;;;;;;;0.00;0.00;;;;;;;;;;5033180;28;20478;-82
2023/07/18 04:27:42;;;;;;;0.20;0.20;;;;;;;;;;5033410;28;20083;-82
2023/07/18 04:30:08;;;;;;;0.10;0.10;;;;;;;;;;5033210;28;20030;-83
2023/07/18 04:32:34;;;;;;;0.68;0.60;;;;;;;;;;5033285;28;20025;-82
2023/07/18 04:35:00;;;;;;;1.88;0.40;;;;;;;;;;5032900;28;20544;-82
2023/07/18 04:37:27;;;;;;;0.10;0.10;;;;;;;;;;5033066;28;20044;-83
2023/07/18 04:39:53;;;;;;;0.10;0.10;;;;;;;;;;5032819;28;20041;-83
2023/07/18 04:42:19;;;;;;;0.05;0.05;;;;;;;;;;5032981;28;20623;-83
2023/07/18 04:44:45;;;;;;;0.43;0.43;;;;;;;;;;5033316;28;20072;-82
2023/07/18 04:47:11;;;;;;;0.15;0.15;;;;;;;;;;5032818;28;20386;-82
2023/07/18 04:49:38;;;;;;;0.10;0.10;;;;;;;;;;5031154;28;20498;-83
2023/07/18 04:52:04;;;;;;;1.17;0.50;;;;;;;;;;5032702;28;20079;-82
2023/07/18 04:54:30;;;;;;;0.13;0.13;;;;;;;;;;5032687;28;20025;-82
2023/07/18 04:56:56;;;;;;;0.10;0.10;;;;;;;;;;5033235;28;20025;-82
2023/07/18 04:59:22;;;;;;;0.55;0.32;;;;;;;;;;5032575;28;20037;-82
2023/07/18 05:01:53;;;;;;;0.10;0.10;;;;;;;;;;5032322;28;20061;-83
2023/07/18 05:04:19;;;;;;;0.13;0.13;;;;;;;;;;5032279;28;20033;-83
2023/07/18 05:06:45;;;;;;;0.30;0.30;;;;;;;;;;5033178;28;20041;-83
2023/07/18 05:09:12;;;;;;;0.30;0.28;;;;;;;;;;5032532;28;20367;-82
2023/07/18 05:11:38;;;;;;;0.43;0.43;;;;;;;;;;5032454;28;20029;-82
2023/07/18 05:14:04;;;;;;;0.00;0.00;;;;;;;;;;5032459;28;20031;-81
2023/07/18 05:16:30;;;;;;;0.13;0.13;;;;;;;;;;5032061;28;20049;-83
2023/07/18 05:18:56;;;;;;;0.30;0.20;;;;;;;;;;5031993;28;20025;-82
2023/07/18 05:21:22;;;;;;;0.20;0.20;;;;;;;;;;5032161;28;20083;-82
2023/07/18 05:23:48;;;;;;;0.10;0.10;;;;;;;;;;5031981;28;20025;-82
2023/07/18 05:26:14;;;;;;;0.17;0.17;;;;;;;;;;5032662;28;20108;-83
2023/07/18 05:28:40;;;;;;;0.30;0.20;;;;;;;;;;5032244;28;20029;-83
2023/07/18 05:31:09;;;;;;;0.15;0.15;;;;;;;;;;5032019;28;20036;-82
2023/07/18 05:33:35;;;;;;;0.30;0.30;;;;;;;;;;5032412;28;20025;-82
2023/07/18 05:36:01;;;;;;;0.63;0.40;;;;;;;;;;5032140;28;20375;-82
2023/07/18 05:38:27;;;;;;;0.20;0.20;;;;;;;;;;5031870;28;20036;-82
2023/07/18 05:40:53;;;;;;;0.35;0.30;;;;;;;;;;5031944;28;20038;-83
2023/07/18 05:43:19;;;;;;;0.20;0.20;;;;;;;;;;5032221;28;20025;-82
2023/07/18 05:45:45;;;;;;;0.40;0.28;;;;;;;;;;5032276;28;20049;-83
2023/07/18 05:48:11;;;;;;;0.20;0.20;;;;;;;;;;5031614;28;20052;-82
2023/07/18 05:50:37;;;;;;;0.75;0.38;;;;;;;;;;5031867;28;20030;-82
2023/07/18 05:53:03;;;;;;;0.10;0.10;;;;;;;;;;5031831;28;20497;-83
2023/07/18 05:55:29;;;;;;;0.10;0.10;;;;;;;;;;5032404;28;20104;-82
2023/07/18 05:57:55;;;;;;;0.15;0.15;;;;;;;;;;5031905;28;20034;-83
2023/07/18 06:00:21;;;;;;;0.50;0.30;;;;;;;;;;5031854;28;20076;-82
2023/07/18 06:02:50;;;;;;;0.55;0.22;;;;;;;;;;5035868;28;20021;-82
2023/07/18 06:05:17;;;;;;;0.13;0.13;;;;;;;;;;5035922;28;20466;-82
2023/07/18 06:07:42;;;;;;;0.20;0.20;;;;;;;;;;5035831;28;20018;-82
2023/07/18 06:10:09;;;;;;;0.40;0.40;;;;;;;;;;5035765;28;20526;-82
2023/07/18 06:12:36;;;;;;;0.25;0.25;;;;;;;;;;5035789;28;20025;-82
2023/07/18 06:15:03;;;;;;;0.45;0.45;;;;;;;;;;5035412;28;20469;-83
2023/07/18 06:17:29;;;;;;;0.45;0.45;;;;;;;;;;5035125;28;20045;-82
2023/07/18 06:19:55;;;;;;;1.35;0.45;;;;;;;;;;5036540;28;20092;-82
2023/07/18 06:22:21;;;;;;;0.30;0.30;;;;;;;;;;5035163;28;20441;-83
2023/07/18 06:24:47;;;;;;;0.63;0.63;;;;;;;;;;5035535;28;20035;-82
2023/07/18 06:27:13;;;;;;;0.38;0.38;;;;;;;;;;5035847;28;20022;-82
2023/07/18 06:29:39;;;;;;;0.30;0.30;;;;;;;;;;5035615;28;20029;-83
2023/07/18 06:32:05;;;;;;;0.17;0.17;;;;;;;;;;5035043;28;20087;-82
2023/07/18 06:34:33;;;;;;;0.63;0.55;;;;;;;;;;5035513;28;20032;-82
2023/07/18 06:37:02;;;;;;;0.10;0.10;;;;;;;;;;5035073;28;20022;-82
2023/07/18 06:39:29;;;;;;;0.30;0.30;;;;;;;;;;5035245;28;20465;-82
2023/07/18 06:41:55;;;;;;;0.20;0.20;;;;;;;;;;5035478;28;20509;-82
2023/07/18 06:44:21;;;;;;;0.47;0.47;;;;;;;;;;5035084;28;20025;-83
2023/07/18 06:46:47;;;;;;;0.15;0.15;;;;;;;;;;5035103;28;20025;-82
2023/07/18 06:49:13;;;;;;;0.75;0.30;;;;;;;;;;5034915;28;20049;-82
2023/07/18 06:51:39;;;;;;;0.10;0.10;;;;;;;;;;5034972;28;20116;-82
2023/07/18 06:54:05;;;;;;;0.20;0.20;;;;;;;;;;5034903;28;20022;-82
2023/07/18 06:56:31;;;;;;;0.00;0.00;;;;;;;;;;5035032;28;20037;-83
2023/07/18 06:58:57;;;;;;;0.10;0.10;;;;;;;;;;5035464;28;20025;-82
2023/07/18 07:01:23;;;;;;;0.10;0.10;;;;;;;;;;5033475;28;20520;-82
2023/07/18 07:03:49;;;;;;;0.25;0.25;;;;;;;;;;5034908;28;20100;-82
2023/07/18 07:06:17;;;;;;;0.20;0.20;;;;;;;;;;5037373;28;20078;-83
2023/07/18 07:08:43;;;;;;;0.13;0.13;;;;;;;;;;5043892;28;20118;-85
2023/07/18 07:11:09;;;;;;;0.30;0.30;;;;;;;;;;5054002;28;20017;-83
2023/07/18 07:13:36;;;;;;;0.17;0.17;;;;;;;;;;5053675;28;20052;-83
2023/07/18 07:16:03;;;;;;;0.13;0.13;;;;;;;;;;5049636;28;20041;-83
2023/07/18 07:18:29;;;;;;;0.20;0.20;;;;;;;;;;5054908;28;20024;-82
2023/07/18 07:20:55;;;;;;;0.20;0.10;;;;;;;;;;5054305;28;20106;-83
2023/07/18 07:23:21;;;;;;;0.28;0.28;;;;;;;;;;5045600;28;20448;-83
2023/07/18 07:25:47;;;;;;;0.20;0.20;;;;;;;;;;5034355;28;20033;-82
2023/07/18 07:28:13;;;;;;;0.22;0.22;;;;;;;;;;5034604;28;20079;-83
2023/07/18 07:30:40;;;;;;;0.13;0.10;;;;;;;;;;5033984;28;20159;-82
2023/07/18 07:33:06;;;;;;;0.10;0.10;;;;;;;;;;5034229;28;20030;-82
2023/07/18 07:35:32;;;;;;;0.17;0.17;;;;;;;;;;5034199;28;20023;-83
2023/07/18 07:37:58;;;;;;;0.10;0.10;;;;;;;;;;5034393;28;20394;-82
2023/07/18 07:40:24;;;;;;;0.10;0.10;;;;;;;;;;5034227;28;20416;-83
2023/07/18 07:42:50;;;;;;;0.03;0.03;;;;;;;;;;5033990;28;20021;-83
2023/07/18 07:45:16;;;;;;;0.10;0.10;;;;;;;;;;5033678;28;20029;-82
2023/07/18 07:47:43;;;;;;;0.03;0.03;;;;;;;;;;5034014;28;20497;-82
2023/07/18 07:50:09;;;;;;;0.38;0.20;;;;;;;;;;5033650;28;20029;-82
2023/07/18 07:52:35;;;;;;;0.10;0.10;;;;;;;;;;5034123;28;20029;-82
2023/07/18 07:55:01;;;;;;;0.30;0.30;;;;;;;;;;5033866;28;20033;-82
2023/07/18 07:57:28;;;;;;;4.78;1.20;;;;;;;;;;5033967;28;20021;-82
2023/07/18 07:59:54;;;;;;;0.93;0.73;;;;;;;;;;5033226;28;20076;-82
2023/07/18 08:02:20;;;;;;;0.73;0.73;;;;;;;;;;5032411;28;20486;-82
2023/07/18 08:04:46;;;;;;;0.15;0.15;;;;;;;;;;5033697;28;20037;-82
2023/07/18 08:07:13;;;;;;;0.50;0.50;;;;;;;;;;5033575;28;20021;-82
2023/07/18 08:09:39;;;;;;;0.10;0.10;;;;;;;;;;5033582;28;20036;-82
2023/07/18 08:12:05;;;;;;;0.30;0.30;;;;;;;;;;5033516;28;20021;-83
2023/07/18 08:14:32;;;;;;;0.00;0.00;;;;;;;;;;5033152;28;20040;-82
2023/07/18 08:16:58;;;;;;;0.20;0.20;;;;;;;;;;5033553;28;20053;-83
2023/07/18 08:19:24;;;;;;;0.10;0.10;;;;;;;;;;5033287;28;20397;-82
2023/07/18 08:21:50;;;;;;;0.35;0.35;;;;;;;;;;5033149;28;20112;-83
2023/07/18 08:24:17;;;;;;;0.50;0.50;;;;;;;;;;5033103;28;20025;-83
2023/07/18 08:26:43;;;;;;;0.68;0.45;;;;;;;;;;5034439;28;20025;-82
2023/07/18 08:29:09;;;;;;;0.15;0.15;;;;;;;;;;5033079;28;20431;-83
2023/07/18 08:31:35;;;;;;;0.30;0.30;;;;;;;;;;5033720;28;20036;-84
2023/07/18 08:34:01;;;;;;;0.82;0.52;;;;;;;;;;5043100;28;20515;-84
2023/07/18 08:36:29;;;;;;;0.25;0.25;;;;;;;;;;5052904;28;20032;-84
2023/07/18 08:38:55;;;;;;;1.50;0.70;;;;;;;;;;5050991;28;20091;-84
2023/07/18 08:41:21;;;;;;;0.30;0.30;;;;;;;;;;5052544;28;20045;-84
2023/07/18 08:43:48;;;;;;;1.02;0.43;;;;;;;;;;5034965;28;20489;-85
2023/07/18 08:46:14;;;;;;;0.20;0.20;;;;;;;;;;5030143;28;20033;-85
2023/07/18 08:48:42;;;;;;;0.30;0.30;;;;;;;;;;5031858;28;20492;-85
2023/07/18 08:51:08;;;;;;;0.73;0.68;;;;;;;;;;5030826;28;20060;-86
2023/07/18 08:53:34;;;;;;;0.30;0.30;;;;;;;;;;5032578;28;20025;-85
2023/07/18 08:56:01;;;;;;;0.25;0.25;;;;;;;;;;5035472;28;20032;-84
2023/07/18 08:58:27;;;;;;;0.20;0.20;;;;;;;;;;5032652;28;20030;-85
2023/07/18 09:00:53;;;;;;;0.77;0.28;;;;;;;;;;5033589;28;20034;-85
2023/07/18 09:03:19;;;;;;;0.57;0.55;;;;;;;;;;5032632;28;20025;-85
2023/07/18 09:05:45;;;;;;;20.48;1.92;;;;;;;;;;5035639;28;20061;-85
2023/07/18 09:08:11;;;;;;;0.38;0.38;;;;;;;;;;5032289;28;20083;-84
2023/07/18 09:10:37;;;;;;;0.35;0.35;;;;;;;;;;5032290;28;20055;-85
2023/07/18 09:13:08;;;;;;;0.47;0.17;;;;;;;;;;5035487;28;20021;-84
2023/07/18 09:15:36;;;;;;;0.75;0.75;;;;;;;;;;5032165;28;20528;-85
2023/07/18 09:18:03;;;;;;;0.20;0.20;;;;;;;;;;5041261;28;20025;-85
2023/07/18 09:20:30;;;;;;;0.70;0.50;;;;;;;;;;5035335;28;20048;-85
2023/07/18 09:23:00;;;;;;;0.13;0.13;;;;;;;;;;5041763;28;20032;-85
2023/07/18 09:25:26;;;;;;;0.70;0.70;;;;;;;;;;5032081;28;20021;-85
2023/07/18 09:27:53;;;;;;;0.60;0.60;;;;;;;;;;5032646;28;20036;-85
2023/07/18 09:30:34;;;;;;;0.50;0.50;;;;;;;;;;5032184;28;20021;-85
2023/07/18 09:33:02;;;;;;;0.65;0.30;;;;;;;;;;5032114;28;20025;-85
2023/07/18 09:35:28;;;;;;;0.20;0.20;;;;;;;;;;5031376;28;20018;-85
2023/07/18 09:37:55;;;;;;;0.32;0.32;;;;;;;;;;5032142;28;20025;-85
2023/07/18 09:40:22;;;;;;;8.88;1.95;;;;;;;;;;5031280;28;20128;-85
2023/07/18 09:42:48;;;;;;;0.68;0.68;;;;;;;;;;5031829;28;20028;-85
2023/07/18 09:45:15;;;;;;;0.75;0.50;;;;;;;;;;5032206;28;20029;-85
2023/07/18 09:47:42;;;;;;;0.75;0.68;;;;;;;;;;5031791;28;20103;-84
2023/07/18 09:50:09;;;;;;;0.32;0.32;;;;;;;;;;5031959;28;20029;-88
2023/07/18 09:52:40;;;;;;;1.10;0.85;;;;;;;;;;5031563;28;20029;-84
2023/07/18 09:55:07;;;;;;;0.90;0.35;;;;;;;;;;5030859;28;20571;-85
2023/07/18 09:57:35;;;;;;;0.50;0.50;;;;;;;;;;5032365;28;20560;-85
2023/07/18 10:00:05;;;;;;;0.60;0.60;;;;;;;;;;5045327;28;20040;-84
2023/07/18 10:02:34;;;;;;;0.40;0.30;;;;;;;;;;5039362;28;20459;-84
2023/07/18 10:05:02;;;;;;;0.75;0.70;;;;;;;;;;5036392;28;20030;-85
2023/07/18 10:07:29;;;;;;;0.20;0.20;;;;;;;;;;5047335;28;20021;-85
2023/07/18 10:09:55;;;;;;;0.20;0.20;;;;;;;;;;5048865;28;20029;-84
2023/07/18 10:12:21;;;;;;;0.35;0.35;;;;;;;;;;5042649;28;20443;-85
2023/07/18 10:14:52;;;;;;;0.45;0.45;;;;;;;;;;5051457;28;20033;-86
2023/07/18 10:17:44;;;;;;;2.38;0.50;;;;;;;;;;5048970;28;20098;-85
2023/07/18 10:20:19;;;;;;;0.75;0.70;;;;;;;;;;5029747;28;20080;-83
2023/07/18 10:22:49;;;;;;;0.60;0.60;;;;;;;;;;5031551;28;20025;-82
2023/07/18 10:25:17;;;;;;;0.55;0.55;;;;;;;;;;5031955;28;20103;-83
2023/07/18 10:27:44;;;;;;;0.40;0.40;;;;;;;;;;5030408;28;20026;-82
2023/07/18 10:30:15;;;;;;;0.63;0.60;;;;;;;;;;5031658;28;20029;-83
2023/07/18 10:32:43;;;;;;;0.52;0.52;;;;;;;;;;5031841;28;20040;-83
2023/07/18 10:35:10;;;;;;;0.88;0.55;;;;;;;;;;5031491;28;20022;-83
2023/07/18 10:37:37;;;;;;;0.52;0.40;;;;;;;;;;5031245;28;20461;-82
2023/07/18 10:40:05;;;;;;;0.22;0.22;;;;;;;;;;5031409;28;20513;-83
2023/07/18 10:42:33;;;;;;;0.50;0.47;;;;;;;;;;5031427;28;20041;-83
2023/07/18 10:45:00;;;;;;;0.60;0.60;;;;;;;;;;5031730;28;20025;-83
2023/07/18 10:47:26;;;;;;;0.20;0.20;;;;;;;;;;5034312;28;20114;-82
2023/07/18 10:49:52;;;;;;;0.28;0.28;;;;;;;;;;5034846;28;20026;-83
2023/07/18 10:52:19;;;;;;;0.70;0.63;;;;;;;;;;5034641;28;20167;-83
2023/07/18 10:54:46;;;;;;;0.13;0.13;;;;;;;;;;5035059;28;20028;-83
2023/07/18 10:57:15;;;;;;;0.90;0.75;;;;;;;;;;5034878;28;20482;-83
2023/07/18 10:59:43;;;;;;;0.30;0.30;;;;;;;;;;5035214;28;20037;-86
2023/07/18 11:02:09;;;;;;;0.20;0.20;;;;;;;;;;5051487;28;20029;-85
2023/07/18 11:04:35;;;;;;;0.63;0.63;;;;;;;;;;5053563;28;20028;-86
2023/07/18 11:07:01;;;;;;;0.20;0.20;;;;;;;;;;5054429;28;20032;-86
2023/07/18 11:09:27;;;;;;;0.70;0.43;;;;;;;;;;5053008;28;20067;-86
2023/07/18 11:11:54;;;;;;;0.63;0.28;;;;;;;;;;5048841;28;20086;-85
2023/07/18 11:14:21;;;;;;;0.40;0.40;;;;;;;;;;5049209;28;20021;-84
2023/07/18 11:16:48;;;;;;;0.40;0.40;;;;;;;;;;5034071;28;20486;-84
2023/07/18 11:19:14;;;;;;;0.30;0.30;;;;;;;;;;5034715;28;20025;-84
2023/07/18 11:21:40;;;;;;;0.13;0.13;;;;;;;;;;5050033;28;20424;-84
2023/07/18 11:24:06;;;;;;;0.50;0.50;;;;;;;;;;5038966;28;20542;-84
2023/07/18 11:26:32;;;;;;;0.82;0.70;;;;;;;;;;5036360;28;20084;-84
2023/07/18 11:28:58;;;;;;;0.40;0.40;;;;;;;;;;5054857;28;20104;-84
2023/07/18 11:31:39;;;;;;;0.40;0.40;;;;;;;;;;5051576;28;20112;-82
2023/07/18 11:34:05;;;;;;;0.43;0.38;;;;;;;;;;5054191;28;20439;-82
2023/07/18 11:36:32;;;;;;;0.40;0.35;;;;;;;;;;5052611;28;20021;-82
2023/07/18 11:39:01;;;;;;;0.17;0.15;;;;;;;;;;5054341;28;20122;-82
2023/07/18 11:41:32;;;;;;;0.20;0.20;;;;;;;;;;5053996;28;20090;-82
2023/07/18 11:44:01;;;;;;;0.20;0.20;;;;;;;;;;5054061;28;20018;-82
2023/07/18 11:46:40;;;;;;;0.60;0.38;;;;;;;;;;5053938;28;20040;-82
2023/07/18 11:49:06;;;;;;;1.25;0.20;;;;;;;;;;5054581;28;20021;-82
2023/07/18 11:51:33;;;;;;;0.20;0.20;;;;;;;;;;5036437;28;20091;-82
2023/07/18 11:54:03;;;;;;;0.25;0.25;;;;;;;;;;5033983;28;20037;-82
2023/07/18 11:56:29;;;;;;;0.30;0.30;;;;;;;;;;5033851;28;20021;-82
2023/07/18 11:58:55;;;;;;;1.40;0.82;;;;;;;;;;5033490;28;20040;-82
2023/07/18 12:01:21;;;;;;;0.40;0.40;;;;;;;;;;5033641;28;20041;-82
2023/07/18 12:03:47;;;;;;;1.05;0.50;;;;;;;;;;5034092;28;20025;-82
2023/07/18 12:06:13;;;;;;;0.65;0.52;;;;;;;;;;5033457;28;20091;-82
2023/07/18 12:08:39;;;;;;;0.73;0.63;;;;;;;;;;5033773;28;20462;-82
2023/07/18 12:11:09;;;;;;;0.88;0.80;;;;;;;;;;5033584;28;20151;-82
2023/07/18 12:13:35;;;;;;;0.60;0.60;;;;;;;;;;5034420;28;20018;-82
2023/07/18 12:16:01;;;;;;;0.50;0.50;;;;;;;;;;5033143;28;20587;-82
2023/07/18 12:18:27;;;;;;;6.13;0.98;;;;;;;;;;5033950;28;20025;-82
2023/07/18 12:20:53;;;;;;;0.57;0.57;;;;;;;;;;5033048;28;20541;-82
2023/07/18 12:23:19;;;;;;;0.73;0.70;;;;;;;;;;5033285;28;20021;-82
2023/07/18 12:25:45;;;;;;;3.10;0.88;;;;;;;;;;5033682;28;20028;-82
2023/07/18 12:28:11;;;;;;;1.25;1.05;;;;;;;;;;5033523;28;20080;-82
2023/07/18 12:30:37;;;;;;;1.05;0.80;;;;;;;;;;5033313;28;20025;-82
2023/07/18 12:33:03;;;;;;;0.73;0.57;;;;;;;;;;5033232;28;20025;-82
2023/07/18 12:35:29;;;;;;;0.93;0.90;;;;;;;;;;5033056;28;20026;-82
2023/07/18 12:37:55;;;;;;;0.77;0.77;;;;;;;;;;5033216;28;20026;-82
2023/07/18 12:40:22;;;;;;;1.05;0.70;;;;;;;;;;5032836;28;20041;-82
2023/07/18 12:42:48;;;;;;;0.30;0.30;;;;;;;;;;5033204;28;20363;-82
2023/07/18 12:45:14;;;;;;;1.17;0.88;;;;;;;;;;5032991;28;20104;-82
2023/07/18 12:47:40;;;;;;;0.85;0.73;;;;;;;;;;5032964;28;20044;-82
2023/07/18 12:50:06;;;;;;;1.08;0.70;;;;;;;;;;5032556;28;20113;-82
2023/07/18 12:52:33;;;;;;;0.20;0.20;;;;;;;;;;5032686;28;20033;-82
2023/07/18 12:54:59;;;;;;;0.52;0.52;;;;;;;;;;5032927;28;20371;-82
2023/07/18 12:57:25;;;;;;;1.40;1.30;;;;;;;;;;5032904;28;20036;-82
2023/07/18 12:59:52;;;;;;;0.28;0.28;;;;;;;;;;5033507;28;20048;-82
2023/07/18 13:02:18;;;;;;;2.38;1.50;;;;;;;;;;5032756;28;20032;-82
2023/07/18 13:04:44;;;;;;;1.08;1.08;;;;;;;;;;5032453;28;20100;-82
2023/07/18 13:07:10;;;;;;;0.40;0.40;;;;;;;;;;5032580;28;20052;-82
2023/07/18 13:09:39;;;;;;;1.15;1.00;;;;;;;;;;5032116;28;20029;-82
2023/07/18 13:12:06;;;;;;;0.32;0.32;;;;;;;;;;5032628;28;20203;-82
2023/07/18 13:14:32;;;;;;;0.22;0.22;;;;;;;;;;5032540;28;20037;-82
2023/07/18 13:16:58;;;;;;;1.73;0.82;;;;;;;;;;5031995;28;20042;-82
2023/07/18 13:19:24;;;;;;;5.00;0.65;;;;;;;;;;5032405;28;20029;-82
2023/07/18 13:21:50;;;;;;;0.20;0.20;;;;;;;;;;5033459;28;20535;-82
2023/07/18 13:24:16;;;;;;;0.40;0.40;;;;;;;;;;5032350;28;20032;-82
2023/07/18 13:26:43;;;;;;;0.40;0.30;;;;;;;;;;5032377;28;20036;-82
2023/07/18 13:29:09;;;;;;;0.52;0.35;;;;;;;;;;5032566;28;20025;-82
2023/07/18 13:31:35;;;;;;;0.80;0.73;;;;;;;;;;5032113;28;20044;-82
2023/07/18 13:34:02;;;;;;;0.28;0.28;;;;;;;;;;5031095;28;20107;-83
2023/07/18 13:36:28;;;;;;;2.20;0.82;;;;;;;;;;5032581;28;20071;-83
2023/07/18 13:38:54;;;;;;;0.32;0.32;;;;;;;;;;5032967;28;20033;-82
2023/07/18 13:41:20;;;;;;;0.32;0.32;;;;;;;;;;5031878;28;20081;-82
2023/07/18 13:43:46;;;;;;;0.68;0.68;;;;;;;;;;5032173;28;20466;-82
2023/07/18 13:46:12;;;;;;;1.83;0.90;;;;;;;;;;5032506;28;20033;-82
2023/07/18 13:48:38;;;;;;;0.82;0.80;;;;;;;;;;5032649;28;20090;-82
2023/07/18 13:51:04;;;;;;;0.40;0.40;;;;;;;;;;5031824;28;20059;-82
2023/07/18 13:53:30;;;;;;;0.88;0.80;;;;;;;;;;5031739;28;20032;-82
2023/07/18 13:55:56;;;;;;;0.25;0.25;;;;;;;;;;5032844;28;20029;-82
2023/07/18 13:58:22;;;;;;;0.95;0.73;;;;;;;;;;5032733;28;20034;-82
2023/07/18 14:00:48;;;;;;;0.80;0.80;;;;;;;;;;5031490;28;20052;-82
2023/07/18 14:03:14;;;;;;;0.22;0.22;;;;;;;;;;5032001;28;20417;-82
2023/07/18 14:05:40;;;;;;;0.52;0.50;;;;;;;;;;5031853;28;20117;-83
2023/07/18 14:08:06;;;;;;;2.00;0.77;;;;;;;;;;5031911;28;20104;-83
2023/07/18 14:10:33;;;;;;;0.88;0.85;;;;;;;;;;5032150;28;20104;-82
2023/07/18 14:12:59;;;;;;;0.40;0.40;;;;;;;;;;5031896;28;20023;-82
2023/07/18 14:15:25;;;;;;;0.20;0.20;;;;;;;;;;5031250;28;20030;-83
2023/07/18 14:17:51;;;;;;;1.00;0.73;;;;;;;;;;5032031;28;20124;-83
2023/07/18 14:20:17;;;;;;;0.85;0.50;;;;;;;;;;5031464;28;20150;-83
2023/07/18 14:22:45;;;;;;;0.43;0.32;;;;;;;;;;5035480;28;20084;-82
2023/07/18 14:25:11;;;;;;;0.68;0.68;;;;;;;;;;5035721;28;20025;-82
2023/07/18 14:27:38;;;;;;;0.85;0.85;;;;;;;;;;5036088;28;20489;-83
2023/07/18 14:30:05;;;;;;;2.55;1.40;;;;;;;;;;5035307;28;20397;-82
2023/07/18 14:32:31;;;;;;;2.10;0.43;;;;;;;;;;5035440;28;20034;-82
2023/07/18 14:34:57;;;;;;;0.73;0.65;;;;;;;;;;5036254;28;20030;-82
2023/07/18 14:37:23;;;;;;;1.15;1.05;;;;;;;;;;5035418;28;20381;-82
2023/07/18 14:39:58;;;;;;;0.50;0.50;;;;;;;;;;5035262;28;20501;-82